Time;durP1;ratioP1;P1;durP2;ratioP2;P2;SDS_P1;SDS_P2;PMS_P1;PMS_P2;Temp;Humidity;BMP_temperature;BMP_pressure;BME280_temperature;BME280_humidity;BME280_pressure;Samples;Min_cycle;Max_cycle;Signal;HPM_P1;HPM_P2
2021/03/25 00:01:47;;;;;;;13.93;12.50;;;;;;;0.27;100.00;98506.38;5022319;28;20220;-68
2021/03/25 00:04:14;;;;;;;15.00;12.97;;;;;;;0.26;100.00;98504.69;5021793;28;20232;-68
2021/03/25 00:06:45;;;;;;;14.73;12.70;;;;;;;0.22;100.00;98505.78;5019763;28;20207;-68
2021/03/25 00:09:17;;;;;;;14.17;12.67;;;;;;;0.33;100.00;98513.84;5020190;28;20296;-68
2021/03/25 00:11:44;;;;;;;15.10;12.13;;;;;;;0.34;100.00;98502.50;5021739;28;20227;-66
2021/03/25 00:14:11;;;;;;;16.63;14.27;;;;;;;0.39;100.00;98510.91;5022200;28;20742;-68
2021/03/25 00:16:38;;;;;;;13.73;12.07;;;;;;;0.45;100.00;98506.28;5022366;28;20200;-68
2021/03/25 00:19:06;;;;;;;15.43;13.87;;;;;;;0.41;99.63;98506.44;5019177;28;20409;-66
2021/03/25 00:21:33;;;;;;;13.30;11.90;;;;;;;0.39;99.70;98502.25;5019152;28;20255;-68
2021/03/25 00:24:01;;;;;;;14.63;12.50;;;;;;;0.28;100.00;98495.88;5022434;28;20236;-68
2021/03/25 00:26:29;;;;;;;13.90;12.47;;;;;;;0.27;100.00;98493.34;5019104;28;20291;-68
2021/03/25 00:28:56;;;;;;;12.30;11.00;;;;;;;0.33;100.00;98502.59;5019861;28;20235;-66
2021/03/25 00:31:23;;;;;;;14.07;12.63;;;;;;;0.20;100.00;98497.22;5019535;28;20228;-68
2021/03/25 00:33:50;;;;;;;15.63;13.17;;;;;;;0.16;100.00;98491.31;5019783;28;20688;-67
2021/03/25 00:36:17;;;;;;;13.37;11.97;;;;;;;0.13;100.00;98494.09;5021056;28;20208;-66
2021/03/25 00:38:44;;;;;;;13.67;12.13;;;;;;;-0.04;100.00;98490.69;5023970;28;20200;-68
2021/03/25 00:41:12;;;;;;;14.20;12.43;;;;;;;0.11;100.00;98490.75;5019611;28;20228;-66
2021/03/25 00:43:39;;;;;;;12.27;11.00;;;;;;;0.10;100.00;98497.75;5021773;28;20233;-68
2021/03/25 00:46:06;;;;;;;16.00;12.13;;;;;;;0.04;100.00;98495.47;5020543;28;20208;-67
2021/03/25 00:48:33;;;;;;;16.70;12.77;;;;;;;-0.01;100.00;98494.88;5018848;28;20200;-68
2021/03/25 00:51:01;;;;;;;15.27;12.63;;;;;;;-0.11;100.00;98497.16;5019996;28;20239;-67
2021/03/25 00:53:31;;;;;;;14.57;12.47;;;;;;;-0.17;100.00;98490.50;5019733;28;20208;-68
2021/03/25 00:55:58;;;;;;;13.27;11.87;;;;;;;-0.25;100.00;98491.84;5019323;28;20200;-68
2021/03/25 00:58:26;;;;;;;14.47;12.70;;;;;;;-0.26;100.00;98487.56;5022652;28;20231;-67
2021/03/25 01:00:54;;;;;;;13.90;12.40;;;;;;;-0.33;100.00;98485.28;5019073;28;20204;-68
2021/03/25 01:03:25;;;;;;;14.97;12.87;;;;;;;-0.42;100.00;98484.94;5023489;28;20228;-68
2021/03/25 01:05:53;;;;;;;15.23;13.10;;;;;;;-0.34;100.00;98482.78;5019391;28;20236;-68
2021/03/25 01:08:21;;;;;;;19.77;12.97;;;;;;;-0.36;100.00;98485.47;5022140;28;20208;-67
2021/03/25 01:11:07;;;;;;;15.67;13.13;;;;;;;-0.31;100.00;98477.41;5015774;28;20243;-67
2021/03/25 01:13:36;;;;;;;15.80;12.10;;;;;;;-0.55;100.00;98474.38;5015573;28;20226;-67
2021/03/25 01:16:05;;;;;;;13.50;12.10;;;;;;;-0.54;100.00;98483.84;5016640;28;20283;-65
2021/03/25 01:18:33;;;;;;;14.80;13.13;;;;;;;-0.34;100.00;98482.78;5022285;28;20204;-67
2021/03/25 01:21:01;;;;;;;13.87;12.43;;;;;;;-0.47;100.00;98480.81;5021576;28;20251;-67
2021/03/25 01:23:28;;;;;;;14.70;12.37;;;;;;;-0.49;100.00;98477.47;5015986;28;20723;-67
2021/03/25 01:25:55;;;;;;;14.30;12.80;;;;;;;-0.54;100.00;98479.47;5022980;28;20242;-66
2021/03/25 01:28:22;;;;;;;14.70;13.13;;;;;;;-0.53;100.00;98470.75;5017297;28;20204;-67
2021/03/25 01:30:50;;;;;;;15.57;12.97;;;;;;;-0.40;100.00;98473.53;5020699;28;20212;-67
2021/03/25 01:33:20;;;;;;;14.37;12.90;;;;;;;-0.34;100.00;98470.59;5022853;28;20660;-66
2021/03/25 01:35:48;;;;;;;12.87;11.67;;;;;;;-0.48;100.00;98463.53;5021118;28;20219;-68
2021/03/25 01:38:21;;;;;;;12.63;11.30;;;;;;;-0.51;100.00;98470.69;5021771;28;20208;-67
2021/03/25 01:40:50;;;;;;;12.90;11.50;;;;;;;-0.61;100.00;98468.53;5019442;28;20208;-68
2021/03/25 01:43:21;;;;;;;17.53;13.53;;;;;;;-0.55;100.00;98467.38;5019227;28;20231;-68
2021/03/25 01:45:56;;;;;;;15.67;12.53;;;;;;;-0.48;100.00;98467.91;5021440;28;20204;-67
2021/03/25 01:48:26;;;;;;;15.17;12.80;;;;;;;-0.68;100.00;98464.59;5013889;28;20432;-68
2021/03/25 01:50:54;;;;;;;13.23;11.43;;;;;;;-0.71;100.00;98463.94;5018192;28;20209;-68
2021/03/25 01:53:59;;;;;;;14.07;12.23;;;;;;;-0.81;100.00;98469.59;5020924;28;20204;-68
2021/03/25 01:56:36;;;;;;;14.43;12.90;;;;;;;-0.86;100.00;98460.38;4972581;28;20238;-68
2021/03/25 01:59:26;;;;;;;14.80;12.73;;;;;;;-0.81;100.00;98453.97;5018992;28;20219;-68
2021/03/25 02:01:55;;;;;;;13.80;12.10;;;;;;;-0.82;100.00;98452.28;5017676;28;20224;-67
2021/03/25 02:04:36;;;;;;;14.50;12.90;;;;;;;-0.84;100.00;98448.94;5020436;28;20231;-67
2021/03/25 02:07:08;;;;;;;13.73;11.70;;;;;;;-0.66;100.00;98443.69;5016613;28;20220;-68
2021/03/25 02:09:41;;;;;;;15.53;13.10;;;;;;;-0.56;100.00;98446.66;5018155;28;20743;-68
2021/03/25 02:12:13;;;;;;;14.00;12.60;;;;;;;-0.74;100.00;98442.34;5014756;28;20228;-67
2021/03/25 02:14:46;;;;;;;14.57;13.03;;;;;;;-0.64;100.00;98441.84;5020391;28;20707;-68
2021/03/25 02:17:18;;;;;;;15.23;12.97;;;;;;;-0.75;100.00;98435.47;5013723;28;20208;-67
2021/03/25 02:20:29;;;;;;;16.47;12.50;;;;;;;-0.83;100.00;98432.41;5017844;28;20296;-68
2021/03/25 02:23:04;;;;;;;12.90;11.33;;;;;;;-0.84;100.00;98435.09;5016530;28;20234;-66
2021/03/25 02:25:35;;;;;;;14.53;12.80;;;;;;;-0.78;100.00;98435.59;5017630;28;20680;-66
2021/03/25 02:28:07;;;;;;;14.60;12.37;;;;;;;-0.77;100.00;98432.06;5019260;28;20196;-67
2021/03/25 02:30:38;;;;;;;15.60;12.37;;;;;;;-0.75;100.00;98435.47;5015744;28;20209;-68
2021/03/25 02:33:09;;;;;;;15.60;12.03;;;;;;;-0.80;100.00;98434.84;5016862;28;20224;-68
2021/03/25 02:35:41;;;;;;;13.63;11.57;;;;;;;-0.77;100.00;98432.06;5019678;28;20208;-67
2021/03/25 02:38:11;;;;;;;13.17;11.87;;;;;;;-0.71;100.00;98428.31;5017465;28;20209;-67
2021/03/25 02:40:41;;;;;;;16.63;11.90;;;;;;;-0.84;100.00;98433.31;5018811;28;20208;-68
2021/03/25 02:43:11;;;;;;;15.83;14.13;;;;;;;-0.84;100.00;98435.09;5019837;28;20579;-69
2021/03/25 02:45:41;;;;;;;16.93;12.27;;;;;;;-0.99;100.00;98429.75;5016765;28;20200;-69
2021/03/25 02:48:12;;;;;;;16.17;13.53;;;;;;;-0.88;100.00;98432.66;5014748;28;20215;-69
2021/03/25 02:50:41;;;;;;;15.27;12.93;;;;;;;-0.88;100.00;98427.47;5020033;28;20702;-68
2021/03/25 02:53:13;;;;;;;13.80;12.50;;;;;;;-0.79;100.00;98428.72;5017206;28;20219;-68
2021/03/25 02:55:40;;;;;;;14.07;12.53;;;;;;;-0.78;100.00;98426.97;5018651;28;20251;-66
2021/03/25 02:58:11;;;;;;;15.73;13.20;;;;;;;-0.78;100.00;98417.38;5016730;28;20215;-69
2021/03/25 03:00:41;;;;;;;17.30;13.07;;;;;;;-0.79;100.00;98425.28;4995488;28;20232;-67
2021/03/25 03:03:13;;;;;;;18.10;14.27;;;;;;;-0.76;100.00;98431.19;5016815;28;20374;-68
2021/03/25 03:05:42;;;;;;;15.40;13.30;;;;;;;-0.66;100.00;98425.47;5017604;28;20255;-66
2021/03/25 03:08:13;;;;;;;14.37;12.67;;;;;;;-0.82;100.00;98422.84;5021320;28;20564;-65
2021/03/25 03:10:43;;;;;;;15.80;13.30;;;;;;;-0.75;100.00;98427.66;5017040;28;20201;-65
2021/03/25 03:13:12;;;;;;;18.83;13.97;;;;;;;-0.91;100.00;98419.81;5019110;28;20212;-66
2021/03/25 03:15:44;;;;;;;14.03;12.50;;;;;;;-0.84;100.00;98424.69;5018368;28;20295;-64
2021/03/25 03:18:14;;;;;;;14.90;12.47;;;;;;;-0.94;100.00;98421.72;5019209;28;20212;-68
2021/03/25 03:20:48;;;;;;;14.70;12.60;;;;;;;-0.95;100.00;98430.47;5018282;28;20200;-68
2021/03/25 03:23:15;;;;;;;17.00;12.63;;;;;;;-1.00;100.00;98427.25;5019377;28;20639;-69
2021/03/25 03:25:43;;;;;;;15.43;13.77;;;;;;;-0.93;100.00;98424.25;5020264;28;20386;-69
2021/03/25 03:28:14;;;;;;;14.17;12.43;;;;;;;-0.95;100.00;98427.84;5020257;28;20231;-69
2021/03/25 03:30:46;;;;;;;14.53;13.00;;;;;;;-1.06;100.00;98428.41;5018259;28;20220;-68
2021/03/25 03:33:19;;;;;;;16.73;13.60;;;;;;;-1.08;100.00;98433.72;5018888;28;20263;-69
2021/03/25 03:35:52;;;;;;;15.67;13.77;;;;;;;-1.20;100.00;98432.56;5019959;28;20208;-69
2021/03/25 03:38:24;;;;;;;15.97;14.27;;;;;;;-1.30;100.00;98431.38;5015709;28;20607;-68
2021/03/25 03:40:53;;;;;;;16.07;12.73;;;;;;;-1.29;100.00;98424.41;5018759;28;20674;-67
2021/03/25 03:43:20;;;;;;;14.53;12.57;;;;;;;-1.37;100.00;98432.56;5018388;28;20377;-70
2021/03/25 03:45:52;;;;;;;13.40;12.10;;;;;;;-1.37;100.00;98427.38;5014437;28;20208;-68
2021/03/25 03:48:28;;;;;;;16.03;12.67;;;;;;;-1.39;100.00;98422.28;5016332;28;20572;-68
2021/03/25 03:50:59;;;;;;;14.87;13.17;;;;;;;-1.28;100.00;98436.47;5017659;28;20204;-68
2021/03/25 03:53:27;;;;;;;15.67;13.70;;;;;;;-1.42;100.00;98429.38;5015563;28;20275;-67
2021/03/25 03:56:02;;;;;;;14.50;12.83;;;;;;;-1.36;100.00;98432.53;5015319;28;20215;-70
2021/03/25 03:58:35;;;;;;;15.00;13.30;;;;;;;-1.37;100.00;98430.84;5014321;28;20204;-67
2021/03/25 04:01:07;;;;;;;16.97;15.03;;;;;;;-1.33;100.00;98429.75;5020996;28;20220;-70
2021/03/25 04:03:38;;;;;;;16.47;14.13;;;;;;;-1.24;100.00;98432.81;5022350;28;20205;-70
2021/03/25 04:06:07;;;;;;;15.10;13.50;;;;;;;-1.23;100.00;98434.47;5022882;28;20208;-69
2021/03/25 04:08:39;;;;;;;15.00;13.07;;;;;;;-1.23;100.00;98430.13;5023271;28;20200;-69
2021/03/25 04:11:13;;;;;;;17.93;13.93;;;;;;;-1.24;100.00;98428.44;5023066;28;20461;-68
2021/03/25 04:13:44;;;;;;;16.17;13.93;;;;;;;-1.15;100.00;98427.13;5022812;28;20203;-70
2021/03/25 04:16:12;;;;;;;15.57;14.00;;;;;;;-1.19;100.00;98423.00;5022987;28;20200;-70
2021/03/25 04:18:45;;;;;;;15.30;13.70;;;;;;;-1.19;100.00;98431.66;5020640;28;20204;-69
2021/03/25 04:21:17;;;;;;;17.63;13.10;;;;;;;-1.13;100.00;98432.25;5022283;28;20224;-69
2021/03/25 04:23:45;;;;;;;15.97;13.33;;;;;;;-1.15;100.00;98429.72;5016224;28;20440;-67
2021/03/25 04:26:20;;;;;;;18.57;12.97;;;;;;;-1.12;100.00;98427.00;5013283;28;20323;-69
2021/03/25 04:28:50;;;;;;;14.73;12.90;;;;;;;-1.09;100.00;98431.16;5021890;28;20784;-69
2021/03/25 04:31:17;;;;;;;16.33;14.60;;;;;;;-1.28;100.00;98436.47;5021557;28;20228;-71
2021/03/25 04:33:46;;;;;;;16.20;13.67;;;;;;;-1.33;100.00;98434.09;5021557;28;20635;-69
2021/03/25 04:36:18;;;;;;;17.00;12.90;;;;;;;-1.32;100.00;98433.22;5024514;28;20240;-70
2021/03/25 04:38:45;;;;;;;15.93;14.37;;;;;;;-1.44;100.00;98434.66;5020079;28;20337;-69
2021/03/25 04:41:14;;;;;;;15.70;14.10;;;;;;;-1.41;100.00;98431.06;5021821;28;20243;-70
2021/03/25 04:43:41;;;;;;;17.07;13.47;;;;;;;-1.42;100.00;98434.56;5019123;28;20208;-69
2021/03/25 04:46:24;;;;;;;15.07;13.30;;;;;;;-1.39;100.00;98434.41;5019561;28;20212;-73
2021/03/25 04:48:53;;;;;;;18.83;14.63;;;;;;;-1.22;100.00;98437.00;5023012;28;20669;-68
2021/03/25 04:51:23;;;;;;;16.53;13.23;;;;;;;-1.37;100.00;98435.19;5014732;28;20227;-69
2021/03/25 04:53:51;;;;;;;18.80;14.73;;;;;;;-1.26;100.00;98432.03;5022586;28;20208;-69
2021/03/25 04:56:20;;;;;;;18.37;13.27;;;;;;;-1.38;100.00;98438.69;5021523;28;20584;-68
2021/03/25 04:58:50;;;;;;;17.60;13.87;;;;;;;-1.39;100.00;98432.69;5016511;28;20208;-68
2021/03/25 05:01:20;;;;;;;16.67;13.20;;;;;;;-1.39;100.00;98435.28;5021912;28;20424;-69
2021/03/25 05:03:47;;;;;;;14.87;13.07;;;;;;;-1.29;100.00;98443.47;5019681;28;20323;-69
2021/03/25 05:06:19;;;;;;;16.40;14.70;;;;;;;-1.41;100.00;98449.25;5022348;28;20559;-69
2021/03/25 05:08:48;;;;;;;15.03;13.47;;;;;;;-1.48;100.00;98443.53;5014087;28;20204;-70
2021/03/25 05:11:17;;;;;;;16.43;13.43;;;;;;;-1.55;100.00;98444.75;5020555;28;20255;-68
2021/03/25 05:14:01;;;;;;;15.17;13.57;;;;;;;-1.67;100.00;98448.81;5022659;28;20460;-69
2021/03/25 05:16:37;;;;;;;16.87;13.83;;;;;;;-1.64;100.00;98449.50;5021792;28;20600;-70
2021/03/25 05:19:09;;;;;;;16.87;14.33;;;;;;;-1.64;100.00;98446.88;5015214;28;20325;-69
2021/03/25 05:21:44;;;;;;;14.43;12.77;;;;;;;-1.61;100.00;98444.13;5018842;28;20224;-69
2021/03/25 05:24:18;;;;;;;15.77;14.10;;;;;;;-1.52;100.00;98440.25;5023166;28;20235;-69
2021/03/25 05:26:57;;;;;;;16.97;14.87;;;;;;;-1.50;100.00;98447.97;5020051;28;20415;-68
2021/03/25 05:29:27;;;;;;;16.47;13.33;;;;;;;-1.39;100.00;98447.41;5018646;28;20595;-69
2021/03/25 05:31:55;;;;;;;18.03;13.63;;;;;;;-1.40;100.00;98445.75;5022375;28;20639;-70
2021/03/25 05:34:23;;;;;;;17.67;14.33;;;;;;;-1.31;100.00;98450.50;5019328;28;20534;-69
2021/03/25 05:36:54;;;;;;;16.83;13.67;;;;;;;-1.27;100.00;98445.97;5020864;28;20561;-69
2021/03/25 05:39:21;;;;;;;18.60;14.47;;;;;;;-1.15;100.00;98447.09;5022108;28;20196;-69
2021/03/25 05:41:53;;;;;;;16.37;13.63;;;;;;;-1.10;100.00;98448.56;5022811;28;20220;-69
2021/03/25 05:45:02;;;;;;;17.77;14.47;;;;;;;-1.02;100.00;98453.34;5020042;28;20251;-69
2021/03/25 05:47:45;;;;;;;17.07;14.40;;;;;;;-0.89;100.00;98448.34;4961034;28;20646;-70
2021/03/25 05:50:21;;;;;;;21.90;14.50;;;;;;;-0.83;100.00;98452.41;5012125;28;20223;-69
2021/03/25 05:52:55;;;;;;;16.23;14.53;;;;;;;-0.84;100.00;98456.75;5020706;28;20220;-70
2021/03/25 05:55:45;;;;;;;15.20;13.67;;;;;;;-0.68;100.00;98456.78;5018616;28;20659;-70
2021/03/25 05:58:19;;;;;;;16.40;14.17;;;;;;;-0.68;100.00;98451.56;5016517;28;20213;-71
2021/03/25 06:00:52;;;;;;;20.20;15.40;;;;;;;-0.63;100.00;98454.75;5021344;28;20208;-71
2021/03/25 06:03:20;;;;;;;16.27;14.57;;;;;;;-0.55;100.00;98454.38;5017031;28;20215;-70
2021/03/25 06:05:53;;;;;;;16.83;14.80;;;;;;;-0.56;100.00;98457.06;5019069;28;20319;-72
2021/03/25 06:08:35;;;;;;;18.20;15.07;;;;;;;-0.49;100.00;98451.44;5014774;28;20246;-71
2021/03/25 06:11:14;;;;;;;15.97;14.27;;;;;;;-0.38;100.00;98453.44;5017418;28;20228;-71
2021/03/25 06:13:49;;;;;;;15.00;13.40;;;;;;;-0.28;100.00;98458.16;5018896;28;20219;-72
2021/03/25 06:16:35;;;;;;;17.57;14.63;;;;;;;-0.18;100.00;98457.56;5016046;28;20741;-68
2021/03/25 06:19:40;;;;;;;20.93;14.27;;;;;;;0.02;100.00;98457.38;5019645;28;20759;-71
2021/03/25 06:22:11;;;;;;;18.00;15.93;;;;;;;0.12;100.00;98466.38;4988877;28;20719;-70
2021/03/25 06:25:16;;;;;;;18.23;14.20;;;;;;;0.16;100.00;98464.44;5020857;28;20700;-68
2021/03/25 06:28:02;;;;;;;17.60;14.43;;;;;;;0.47;100.00;98473.13;5018353;28;20337;-68
2021/03/25 06:30:32;;;;;;;17.93;14.37;;;;;;;0.35;100.00;98472.06;5016837;28;20204;-71
2021/03/25 06:33:03;;;;;;;16.30;14.57;;;;;;;0.47;100.00;98483.56;5012605;28;20327;-71
2021/03/25 06:35:36;;;;;;;15.77;14.03;;;;;;;0.59;100.00;98488.06;5015447;28;20212;-73
2021/03/25 06:38:07;;;;;;;17.17;14.73;;;;;;;0.69;98.51;98485.75;5016208;28;20212;-71
2021/03/25 06:40:37;;;;;;;18.00;14.60;;;;;;;0.72;99.01;98482.97;5017239;28;20552;-71
2021/03/25 06:43:08;;;;;;;18.60;15.77;;;;;;;0.92;97.56;98489.63;5015753;28;20229;-69
2021/03/25 06:45:38;;;;;;;17.43;15.13;;;;;;;1.02;96.78;98489.94;5015212;28;20221;-72
2021/03/25 06:48:11;;;;;;;16.10;14.37;;;;;;;1.10;97.34;98487.69;5020298;28;20313;-73
2021/03/25 06:50:40;;;;;;;17.30;15.43;;;;;;;1.22;98.08;98493.09;5017291;28;20232;-70
2021/03/25 06:53:26;;;;;;;17.60;15.37;;;;;;;1.32;96.69;98486.38;5014816;28;20211;-70
2021/03/25 06:55:56;;;;;;;18.23;14.70;;;;;;;1.46;96.35;98496.00;5012190;28;20206;-69
2021/03/25 06:58:27;;;;;;;21.57;14.57;;;;;;;1.50;96.43;98483.59;5019245;28;20203;-72
2021/03/25 07:00:59;;;;;;;18.50;15.53;;;;;;;1.63;95.09;98487.13;5015199;28;20717;-72
2021/03/25 07:03:26;;;;;;;17.73;15.07;;;;;;;1.72;95.42;98485.72;5019880;28;20205;-70
2021/03/25 07:05:54;;;;;;;18.57;15.03;;;;;;;1.96;92.76;98480.72;5009359;28;20224;-71
2021/03/25 07:08:23;;;;;;;17.27;14.73;;;;;;;2.25;91.45;98490.22;5020017;28;20774;-71
2021/03/25 07:10:51;;;;;;;16.90;14.57;;;;;;;2.44;90.51;98484.66;5013946;28;20219;-72
2021/03/25 07:13:30;;;;;;;15.90;14.27;;;;;;;2.45;90.52;98486.31;5018536;28;20446;-72
2021/03/25 07:15:58;;;;;;;17.17;15.17;;;;;;;2.64;89.35;98482.50;5016885;28;20708;-71
2021/03/25 07:18:30;;;;;;;17.97;16.03;;;;;;;2.80;87.86;98483.16;5018509;28;20210;-71
2021/03/25 07:21:23;;;;;;;20.83;15.73;;;;;;;2.91;87.18;98490.28;5016321;28;20209;-69
2021/03/25 07:23:51;;;;;;;18.90;15.20;;;;;;;2.82;88.80;98483.88;5020764;28;20200;-70
2021/03/25 07:26:20;;;;;;;19.80;13.87;;;;;;;3.00;87.91;98489.66;5018476;28;20200;-71
2021/03/25 07:28:59;;;;;;;16.73;14.23;;;;;;;3.23;87.27;98486.44;5020979;28;20208;-70
2021/03/25 07:31:31;;;;;;;22.10;15.67;;;;;;;3.61;85.51;98491.63;5017136;28;20235;-71
2021/03/25 07:33:59;;;;;;;16.50;13.93;;;;;;;3.75;82.82;98485.44;5022749;28;20208;-69
2021/03/25 07:36:26;;;;;;;17.57;14.87;;;;;;;3.96;82.34;98490.06;5023931;28;20204;-71
2021/03/25 07:39:00;;;;;;;17.10;15.30;;;;;;;4.14;81.62;98493.16;5019031;28;20209;-72
2021/03/25 07:41:29;;;;;;;17.60;15.03;;;;;;;4.48;79.97;98492.50;5021730;28;20228;-71
2021/03/25 07:43:59;;;;;;;19.77;15.50;;;;;;;4.72;78.46;98496.88;5018187;28;20209;-69
2021/03/25 07:46:30;;;;;;;28.00;16.17;;;;;;;4.90;79.18;98492.88;5024842;28;20201;-71
2021/03/25 07:49:12;;;;;;;17.43;15.23;;;;;;;5.22;81.48;98494.84;5020895;28;20683;-70
2021/03/25 07:51:49;;;;;;;18.63;14.53;;;;;;;5.33;78.48;98501.94;5023190;28;20274;-70
2021/03/25 07:54:20;;;;;;;19.27;15.73;;;;;;;5.40;76.44;98498.81;5018681;28;20978;-71
2021/03/25 07:56:55;;;;;;;18.57;15.63;;;;;;;5.42;77.19;98491.66;5017065;28;20200;-70
2021/03/25 07:59:35;;;;;;;16.87;15.07;;;;;;;5.82;73.75;98491.16;5020831;28;21013;-70
2021/03/25 08:02:03;;;;;;;16.23;14.63;;;;;;;5.79;74.19;98492.22;5022036;28;20232;-70
2021/03/25 08:04:32;;;;;;;16.27;14.13;;;;;;;6.04;73.68;98490.31;5022641;28;20311;-68
2021/03/25 08:07:05;;;;;;;15.80;14.20;;;;;;;6.08;72.74;98483.84;5022412;28;20204;-70
2021/03/25 08:09:45;;;;;;;17.23;14.30;;;;;;;6.35;72.15;98482.56;5018468;28;20640;-72
2021/03/25 08:12:28;;;;;;;14.60;13.07;;;;;;;6.56;70.22;98481.75;5023924;28;20317;-68
2021/03/25 08:15:22;;;;;;;15.20;13.60;;;;;;;6.77;70.85;98481.78;5021761;28;20207;-69
2021/03/25 08:17:58;;;;;;;15.40;13.83;;;;;;;7.00;68.70;98486.09;5021115;28;20326;-69
2021/03/25 08:20:30;;;;;;;15.43;13.73;;;;;;;7.08;67.71;98479.22;5020256;28;20211;-71
2021/03/25 08:23:12;;;;;;;13.97;12.53;;;;;;;7.04;67.71;98480.44;5022083;28;20235;-71
2021/03/25 08:25:41;;;;;;;17.40;13.33;;;;;;;7.28;67.51;98483.75;5024075;28;20220;-69
2021/03/25 08:28:34;;;;;;;14.17;12.67;;;;;;;7.63;66.73;98491.28;5017845;28;20239;-68
2021/03/25 08:31:16;;;;;;;14.40;12.90;;;;;;;7.80;65.06;98475.78;5019630;28;20208;-70
2021/03/25 08:33:51;;;;;;;15.40;13.80;;;;;;;7.96;63.28;98483.19;5021736;28;20698;-73
2021/03/25 08:36:23;;;;;;;15.67;13.77;;;;;;;8.11;63.62;98481.81;5019137;28;20281;-70
2021/03/25 08:39:15;;;;;;;12.80;11.50;;;;;;;8.38;62.65;98475.06;5016594;28;20218;-68
2021/03/25 08:41:46;;;;;;;14.70;12.93;;;;;;;8.74;60.61;98481.63;5011148;28;20228;-69
2021/03/25 08:44:23;;;;;;;15.40;12.87;;;;;;;8.77;60.28;98484.81;5017378;28;20208;-68
2021/03/25 08:46:55;;;;;;;19.77;14.10;;;;;;;8.89;59.82;98479.38;5019682;28;20299;-72
2021/03/25 08:49:28;;;;;;;12.37;11.17;;;;;;;9.12;59.29;98471.97;5019910;28;20204;-72
2021/03/25 08:51:57;;;;;;;17.23;12.37;;;;;;;9.14;59.13;98477.94;5020594;28;20228;-70
2021/03/25 08:54:26;;;;;;;16.17;12.73;;;;;;;9.07;57.94;98472.38;5021221;28;20201;-71
2021/03/25 08:56:56;;;;;;;14.53;13.03;;;;;;;9.51;58.80;98473.66;5020097;28;20204;-69
2021/03/25 08:59:25;;;;;;;13.47;12.17;;;;;;;9.76;57.73;98473.94;5022652;28;20211;-72
2021/03/25 09:01:57;;;;;;;14.80;13.30;;;;;;;9.94;57.51;98474.00;5017038;28;20227;-73
2021/03/25 09:04:25;;;;;;;14.73;12.67;;;;;;;10.32;56.11;98471.25;5018858;28;20769;-70
2021/03/25 09:06:53;;;;;;;17.33;13.70;;;;;;;10.40;56.27;98464.25;5017752;28;20208;-71
2021/03/25 09:09:40;;;;;;;15.20;13.70;;;;;;;10.56;55.35;98466.22;5016107;28;20200;-68
2021/03/25 09:12:11;;;;;;;16.27;12.03;;;;;;;10.78;56.25;98471.19;5021400;28;20224;-70
2021/03/25 09:14:39;;;;;;;17.60;13.13;;;;;;;10.99;54.94;98468.22;5016167;28;20200;-72
2021/03/25 09:17:15;;;;;;;14.00;12.30;;;;;;;11.00;53.15;98473.34;5016888;28;20647;-70
2021/03/25 09:19:46;;;;;;;14.37;12.90;;;;;;;11.19;54.24;98466.19;5018089;28;20205;-72
2021/03/25 09:22:49;;;;;;;16.07;13.37;;;;;;;11.19;53.15;98468.00;5020147;28;20731;-71
2021/03/25 09:25:37;;;;;;;16.43;13.10;;;;;;;11.30;52.24;98470.38;5019892;28;20783;-70
2021/03/25 09:28:19;;;;;;;13.93;12.40;;;;;;;11.41;52.36;98463.97;5016555;28;20633;-72
2021/03/25 09:31:12;;;;;;;14.90;12.60;;;;;;;11.41;51.55;98463.97;5022057;28;20207;-70
2021/03/25 09:33:46;;;;;;;13.93;11.97;;;;;;;11.50;52.27;98465.69;5018462;28;20223;-72
2021/03/25 09:36:50;;;;;;;18.30;13.13;;;;;;;11.64;51.50;98460.78;5021859;28;20934;-71
2021/03/25 09:39:35;;;;;;;17.17;12.67;;;;;;;12.19;50.93;98463.97;5021482;28;20200;-71
2021/03/25 09:42:05;;;;;;;15.60;12.30;;;;;;;12.22;49.63;98469.81;5019377;28;20328;-68
2021/03/25 09:44:48;;;;;;;15.30;12.93;;;;;;;12.29;49.43;98462.00;5018483;28;20695;-69
2021/03/25 09:47:36;;;;;;;13.17;11.50;;;;;;;12.45;49.63;98454.06;5018089;28;20762;-68
2021/03/25 09:50:17;;;;;;;14.57;13.00;;;;;;;12.40;49.19;98463.50;5017272;28;20257;-71
2021/03/25 09:52:47;;;;;;;16.53;12.93;;;;;;;12.80;48.35;98461.03;5018381;28;20738;-69
2021/03/25 09:55:23;;;;;;;13.80;12.33;;;;;;;13.10;47.54;98454.19;5017587;28;20208;-69
2021/03/25 09:57:52;;;;;;;16.33;12.70;;;;;;;13.21;45.99;98453.00;5018494;28;20284;-69
2021/03/25 10:00:58;;;;;;;14.77;11.57;;;;;;;13.33;46.00;98450.81;5016801;28;20635;-68
2021/03/25 10:04:07;;;;;;;15.10;12.53;;;;;;;13.49;45.27;98439.34;5017564;28;20223;-70
2021/03/25 10:07:26;;;;;;;16.03;13.50;;;;;;;13.55;45.88;98445.78;5017759;28;20759;-69
2021/03/25 10:10:02;;;;;;;14.33;12.63;;;;;;;13.52;44.99;98441.66;5010935;28;20201;-71
2021/03/25 10:12:55;;;;;;;17.07;13.17;;;;;;;13.87;44.13;98428.00;5019251;28;20219;-68
2021/03/25 10:15:44;;;;;;;16.80;12.27;;;;;;;13.92;44.04;98430.97;5017380;28;20295;-71
2021/03/25 10:18:12;;;;;;;15.70;12.80;;;;;;;13.80;44.89;98427.84;5021154;28;20667;-69
2021/03/25 10:20:59;;;;;;;14.87;12.53;;;;;;;14.24;42.94;98430.97;5020211;28;20585;-70
2021/03/25 10:23:30;;;;;;;14.80;12.40;;;;;;;14.51;43.99;98423.41;5017115;28;20211;-71
2021/03/25 10:26:10;;;;;;;13.33;11.50;;;;;;;14.25;43.65;98427.28;5018769;28;20337;-70
2021/03/25 10:28:40;;;;;;;18.03;12.33;;;;;;;14.54;42.78;98418.56;5021781;28;20545;-70
2021/03/25 10:31:15;;;;;;;14.53;12.90;;;;;;;14.31;42.35;98415.91;5018186;28;20327;-68
2021/03/25 10:33:42;;;;;;;12.93;11.47;;;;;;;14.52;41.65;98411.75;5021510;28;20306;-68
2021/03/25 10:36:15;;;;;;;13.47;12.03;;;;;;;14.56;42.07;98410.38;5018814;28;20308;-72
2021/03/25 10:38:47;;;;;;;12.83;11.37;;;;;;;14.93;41.48;98403.41;5017335;28;20439;-70
2021/03/25 10:41:17;;;;;;;12.57;11.00;;;;;;;15.09;41.21;98404.25;5021390;28;20232;-70
2021/03/25 10:43:49;;;;;;;13.90;11.57;;;;;;;14.88;41.28;98397.78;5017313;28;20664;-68
2021/03/25 10:46:27;;;;;;;14.63;11.70;;;;;;;15.57;40.29;98407.38;5019253;28;20595;-69
2021/03/25 10:48:59;;;;;;;15.20;12.10;;;;;;;15.33;40.14;98395.97;5020153;28;20215;-69
2021/03/25 10:51:28;;;;;;;16.40;12.23;;;;;;;15.11;39.43;98389.72;5014414;28;20224;-72
2021/03/25 10:53:58;;;;;;;15.07;11.73;;;;;;;15.04;39.76;98386.97;5014306;28;20236;-71
2021/03/25 10:56:27;;;;;;;12.80;11.10;;;;;;;15.49;37.99;98391.47;5016643;28;20196;-70
2021/03/25 10:58:59;;;;;;;10.67;9.50;;;;;;;15.91;36.25;98383.78;5022065;28;20347;-71
2021/03/25 11:01:29;;;;;;;9.43;8.53;;;;;;;15.83;35.21;98387.34;5015178;28;20216;-68
2021/03/25 11:03:57;;;;;;;10.63;9.37;;;;;;;15.45;36.08;98380.31;5018501;28;20246;-68
2021/03/25 11:06:26;;;;;;;11.33;9.77;;;;;;;15.11;35.71;98380.88;5016391;28;20330;-69
2021/03/25 11:09:05;;;;;;;11.43;9.80;;;;;;;15.36;35.48;98375.28;5016183;28;20216;-73
2021/03/25 11:11:37;;;;;;;12.47;10.80;;;;;;;15.38;35.98;98373.25;5016596;28;20229;-70
2021/03/25 11:14:06;;;;;;;11.67;10.27;;;;;;;15.41;35.96;98379.03;5020129;28;20212;-69
2021/03/25 11:16:33;;;;;;;14.77;9.93;;;;;;;15.71;36.51;98370.97;5016895;28;20204;-71
2021/03/25 11:19:03;;;;;;;11.70;9.67;;;;;;;15.88;36.18;98368.94;5018454;28;20722;-68
2021/03/25 11:21:33;;;;;;;10.77;8.93;;;;;;;16.51;35.76;98372.81;5017414;28;20371;-70
2021/03/25 11:24:13;;;;;;;11.07;9.90;;;;;;;16.52;34.63;98365.63;5018557;28;20195;-71
2021/03/25 11:26:40;;;;;;;10.77;9.20;;;;;;;16.60;34.87;98360.13;5017655;28;20227;-70
2021/03/25 11:29:07;;;;;;;10.33;9.23;;;;;;;16.58;35.80;98356.81;5014122;28;20204;-71
2021/03/25 11:31:36;;;;;;;11.57;9.47;;;;;;;16.93;33.80;98359.53;5019223;28;20258;-70
2021/03/25 11:34:04;;;;;;;11.30;10.10;;;;;;;16.78;33.89;98352.41;5019208;28;20758;-71
2021/03/25 11:36:43;;;;;;;10.80;9.70;;;;;;;16.69;34.22;98355.47;5015270;28;20623;-71
2021/03/25 11:39:17;;;;;;;11.13;9.27;;;;;;;16.81;33.67;98350.38;5019581;28;20208;-71
2021/03/25 11:41:45;;;;;;;10.30;9.20;;;;;;;17.25;33.29;98353.75;5017211;28;20588;-70
2021/03/25 11:44:40;;;;;;;11.43;10.23;;;;;;;17.31;33.59;98350.28;5013568;28;20670;-68